Time;durP1;ratioP1;P1;durP2;ratioP2;P2;SDS_P1;SDS_P2;PMS_P1;PMS_P2;Temp;Humidity;BMP_temperature;BMP_pressure;BME280_temperature;BME280_humidity;BME280_pressure;Samples;Min_cycle;Max_cycle;Signal;HPM_P1;HPM_P2
2022/03/14 00:01:14;;;;;;;34.67;19.60;;;8.70;34.40;;;;;;5054928;28;20228;-63
2022/03/14 00:03:45;;;;;;;24.83;20.30;;;8.60;34.50;;;;;;5054494;28;20714;-62
2022/03/14 00:06:12;;;;;;;22.65;18.30;;;8.60;34.60;;;;;;5055055;28;20233;-63
2022/03/14 00:08:44;;;;;;;25.52;18.20;;;8.60;34.70;;;;;;5053419;28;20229;-63
2022/03/14 00:11:14;;;;;;;23.90;16.20;;;8.60;34.70;;;;;;5054938;28;20237;-64
2022/03/14 00:13:43;;;;;;;21.23;15.95;;;8.60;34.70;;;;;;5054479;28;20287;-62
2022/03/14 00:16:14;;;;;;;25.13;18.35;;;8.70;34.80;;;;;;5054711;28;20229;-64
2022/03/14 00:18:48;;;;;;;22.05;18.02;;;8.60;34.90;;;;;;5054490;28;20239;-63
2022/03/14 00:21:15;;;;;;;25.48;16.63;;;8.50;34.90;;;;;;5054625;28;20237;-63
2022/03/14 00:23:42;;;;;;;22.35;18.33;;;8.60;35.00;;;;;;5054167;28;20226;-63
2022/03/14 00:26:08;;;;;;;21.17;17.52;;;8.50;34.80;;;;;;5054837;28;20667;-63
2022/03/14 00:28:35;;;;;;;19.50;15.65;;;8.40;34.90;;;;;;5054106;28;20228;-63
2022/03/14 00:31:02;;;;;;;19.58;14.15;;;8.50;35.10;;;;;;5054243;28;20240;-63
2022/03/14 00:33:29;;;;;;;18.40;14.02;;;8.50;35.00;;;;;;5054596;28;20260;-63
2022/03/14 00:35:57;;;;;;;19.65;14.05;;;8.50;35.00;;;;;;5053827;28;20675;-62
2022/03/14 00:38:25;;;;;;;19.40;15.05;;;8.50;35.10;;;;;;5054353;28;20229;-63
2022/03/14 00:40:52;;;;;;;17.67;15.35;;;8.50;35.00;;;;;;5053808;28;20363;-62
2022/03/14 00:43:19;;;;;;;21.77;14.52;;;8.30;35.00;;;;;;5054262;28;20229;-63
2022/03/14 00:45:46;;;;;;;16.90;15.10;;;8.40;35.30;;;;;;5053948;28;20236;-63
2022/03/14 00:48:13;;;;;;;29.40;14.02;;;8.40;35.20;;;;;;5054179;28;20247;-62
2022/03/14 00:50:39;;;;;;;18.98;15.68;;;8.40;35.10;;;;;;5053542;28;20233;-63
2022/03/14 00:53:08;;;;;;;23.13;16.92;;;8.40;35.30;;;;;;5054114;28;20236;-63
2022/03/14 00:55:36;;;;;;;21.95;16.45;;;8.30;35.20;;;;;;5053975;28;20236;-63
2022/03/14 00:58:02;;;;;;;24.13;15.95;;;8.40;35.30;;;;;;5053573;28;20221;-63
2022/03/14 01:00:29;;;;;;;17.60;13.55;;;8.40;35.30;;;;;;5054005;28;20237;-63
2022/03/14 01:02:58;;;;;;;22.65;16.27;;;8.40;35.30;;;;;;5053384;28;20221;-62
2022/03/14 01:05:25;;;;;;;22.10;15.82;;;8.40;35.30;;;;;;5053940;28;20232;-64
2022/03/14 01:07:51;;;;;;;31.83;17.15;;;8.30;35.20;;;;;;5053441;28;20252;-63
2022/03/14 01:10:20;;;;;;;22.23;16.40;;;8.30;35.20;;;;;;5053706;28;20232;-63
2022/03/14 01:12:47;;;;;;;19.83;15.15;;;8.20;35.20;;;;;;5053207;28;20229;-63
2022/03/14 01:15:14;;;;;;;24.95;15.98;;;8.20;35.30;;;;;;5053699;28;20264;-63
2022/03/14 01:17:41;;;;;;;19.17;14.45;;;8.20;35.30;;;;;;5053046;28;20698;-64
2022/03/14 01:20:10;;;;;;;21.05;16.25;;;8.20;35.20;;;;;;5053226;28;20683;-62
2022/03/14 01:22:38;;;;;;;23.75;14.98;;;8.20;35.40;;;;;;5053694;28;20221;-63
2022/03/14 01:25:06;;;;;;;21.02;15.40;;;8.20;35.30;;;;;;5053220;28;20560;-63
2022/03/14 01:27:34;;;;;;;19.88;15.10;;;8.20;35.40;;;;;;5053477;28;20235;-63
2022/03/14 01:30:01;;;;;;;20.60;14.75;;;8.10;35.40;;;;;;5053083;28;20666;-63
2022/03/14 01:32:28;;;;;;;18.92;15.40;;;8.10;35.60;;;;;;5053349;28;20216;-64
2022/03/14 01:34:55;;;;;;;21.77;15.13;;;8.00;35.70;;;;;;5052767;28;20225;-65
2022/03/14 01:37:21;;;;;;;19.35;15.80;;;8.00;35.70;;;;;;5053434;28;20569;-63
2022/03/14 01:39:48;;;;;;;25.73;16.88;;;8.00;35.80;;;;;;5052729;28;20252;-63
2022/03/14 01:42:19;;;;;;;20.77;15.43;;;7.90;35.90;;;;;;5053278;28;20741;-63
2022/03/14 01:44:48;;;;;;;21.35;15.60;;;7.90;35.90;;;;;;5052803;28;20305;-63
2022/03/14 01:47:15;;;;;;;21.90;15.70;;;7.90;36.00;;;;;;5053149;28;20229;-63
2022/03/14 01:49:42;;;;;;;19.38;15.80;;;7.90;36.00;;;;;;5052618;28;20229;-62
2022/03/14 01:52:09;;;;;;;17.38;13.25;;;7.80;36.10;;;;;;5052931;28;20248;-62
2022/03/14 01:54:36;;;;;;;20.17;14.38;;;7.80;36.20;;;;;;5052934;28;20228;-63
2022/03/14 01:57:04;;;;;;;23.67;16.30;;;7.70;36.30;;;;;;5052612;28;20244;-62
2022/03/14 01:59:31;;;;;;;19.17;15.25;;;7.70;36.50;;;;;;5052811;28;20221;-62
2022/03/14 02:02:00;;;;;;;21.35;15.57;;;7.70;36.50;;;;;;5052328;28;20236;-61
2022/03/14 02:04:27;;;;;;;21.20;14.98;;;7.60;36.50;;;;;;5053022;28;20224;-63
2022/03/14 02:06:57;;;;;;;20.60;15.10;;;7.60;36.60;;;;;;5052240;28;20225;-62
2022/03/14 02:09:24;;;;;;;19.85;14.73;;;7.60;36.60;;;;;;5052950;28;20233;-61
2022/03/14 02:11:54;;;;;;;23.17;15.52;;;7.60;36.70;;;;;;5052227;28;20225;-63
2022/03/14 02:14:21;;;;;;;17.95;13.38;;;7.60;36.70;;;;;;5052854;28;20296;-63
2022/03/14 02:16:49;;;;;;;19.48;14.65;;;7.50;37.00;;;;;;5052075;28;20653;-62
2022/03/14 02:19:17;;;;;;;19.42;14.15;;;7.40;36.90;;;;;;5052880;28;20559;-62
2022/03/14 02:21:45;;;;;;;21.50;15.05;;;7.40;37.00;;;;;;5052202;28;20229;-63
2022/03/14 02:24:13;;;;;;;20.38;14.40;;;7.30;37.00;;;;;;5052621;28;20236;-63
2022/03/14 02:26:44;;;;;;;16.80;13.85;;;7.40;37.00;;;;;;5052535;28;20285;-63
2022/03/14 02:29:13;;;;;;;19.70;12.98;;;7.40;37.00;;;;;;5052579;28;20214;-63
2022/03/14 02:31:41;;;;;;;20.25;14.55;;;7.40;37.00;;;;;;5054332;28;20229;-63
2022/03/14 02:34:08;;;;;;;17.73;13.90;;;7.40;37.10;;;;;;5056376;28;20232;-63
2022/03/14 02:36:39;;;;;;;21.38;14.55;;;7.30;36.80;;;;;;5056586;28;20225;-62
2022/03/14 02:39:07;;;;;;;20.42;14.52;;;7.30;37.00;;;;;;5056232;28;20233;-62
2022/03/14 02:41:35;;;;;;;21.15;15.32;;;7.30;37.00;;;;;;5056196;28;20706;-62
2022/03/14 02:44:06;;;;;;;18.60;13.88;;;7.40;37.10;;;;;;5056258;28;20235;-62
2022/03/14 02:46:34;;;;;;;19.45;13.40;;;7.40;37.20;;;;;;5056548;28;20221;-63
2022/03/14 02:49:01;;;;;;;23.25;14.30;;;7.40;37.10;;;;;;5055901;28;20229;-63
2022/03/14 02:51:28;;;;;;;18.42;14.70;;;7.40;37.00;;;;;;5056273;28;20217;-63
2022/03/14 02:53:55;;;;;;;22.27;15.85;;;7.30;37.20;;;;;;5055811;28;20230;-62
2022/03/14 02:56:23;;;;;;;16.92;14.80;;;7.30;37.20;;;;;;5056231;28;20307;-63
2022/03/14 02:58:51;;;;;;;22.80;15.18;;;7.30;37.20;;;;;;5055909;28;20733;-62
2022/03/14 03:01:18;;;;;;;22.17;15.43;;;7.20;37.30;;;;;;5055876;28;20229;-63
2022/03/14 03:03:45;;;;;;;17.65;13.07;;;7.30;37.40;;;;;;5056278;28;20239;-62
2022/03/14 03:06:13;;;;;;;20.45;15.40;;;7.30;37.50;;;;;;5055717;28;20225;-62
2022/03/14 03:08:43;;;;;;;21.52;15.85;;;7.30;37.40;;;;;;5056047;28;20221;-63
2022/03/14 03:11:11;;;;;;;18.40;14.07;;;7.40;37.50;;;;;;5055490;28;20229;-63
2022/03/14 03:13:41;;;;;;;18.95;13.95;;;7.40;37.30;;;;;;5056023;28;20272;-63
2022/03/14 03:16:08;;;;;;;17.10;13.15;;;7.40;37.20;;;;;;5055505;28;20232;-63
2022/03/14 03:18:35;;;;;;;16.17;13.63;;;7.40;37.10;;;;;;5055774;28;20221;-62
2022/03/14 03:21:08;;;;;;;18.60;14.30;;;7.40;37.10;;;;;;5055339;28;20240;-62
2022/03/14 03:23:35;;;;;;;19.33;14.20;;;7.40;37.00;;;;;;5055743;28;20226;-63
2022/03/14 03:26:02;;;;;;;20.55;14.52;;;7.40;37.00;;;;;;5055409;28;20247;-63
2022/03/14 03:28:35;;;;;;;18.48;13.68;;;7.40;37.20;;;;;;5055901;28;20217;-63
2022/03/14 03:31:04;;;;;;;20.10;13.50;;;7.40;37.20;;;;;;5055138;28;20552;-63
2022/03/14 03:33:31;;;;;;;16.55;13.50;;;7.40;37.20;;;;;;5055626;28;20319;-63
2022/03/14 03:35:58;;;;;;;18.25;14.30;;;7.50;37.30;;;;;;5055159;28;20248;-63
2022/03/14 03:38:25;;;;;;;18.02;13.30;;;7.50;37.20;;;;;;5055365;28;20336;-63
2022/03/14 03:40:52;;;;;;;16.25;14.55;;;7.50;37.10;;;;;;5055038;28;20247;-62
2022/03/14 03:43:19;;;;;;;17.38;13.73;;;7.50;37.20;;;;;;5055667;28;20801;-63
2022/03/14 03:45:46;;;;;;;18.70;14.52;;;7.50;37.10;;;;;;5055238;28;20224;-63
2022/03/14 03:48:14;;;;;;;19.00;13.90;;;7.50;37.20;;;;;;5054863;28;20225;-62
2022/03/14 03:50:42;;;;;;;17.67;13.88;;;7.50;37.10;;;;;;5055172;28;20233;-63
2022/03/14 03:53:09;;;;;;;20.13;14.55;;;7.50;36.90;;;;;;5054696;28;20231;-62
2022/03/14 03:55:35;;;;;;;20.35;14.65;;;7.60;36.90;;;;;;5055302;28;20232;-63
2022/03/14 03:58:03;;;;;;;19.73;13.85;;;7.60;36.90;;;;;;5054883;28;20220;-63
2022/03/14 04:00:30;;;;;;;18.33;13.57;;;7.60;36.90;;;;;;5054855;28;20275;-63
2022/03/14 04:02:57;;;;;;;17.75;14.32;;;7.60;36.80;;;;;;5054859;28;20244;-62
2022/03/14 04:05:27;;;;;;;19.70;15.32;;;7.40;36.60;;;;;;5055015;28;20219;-63
2022/03/14 04:07:58;;;;;;;16.10;12.93;;;7.50;36.80;;;;;;5054419;28;20220;-63
2022/03/14 04:10:28;;;;;;;22.33;13.80;;;7.40;36.70;;;;;;5055031;28;20225;-63
2022/03/14 04:13:03;;;;;;;21.20;13.90;;;7.40;36.80;;;;;;5054613;28;20225;-63
2022/03/14 04:15:30;;;;;;;20.25;13.95;;;7.40;36.90;;;;;;5054778;28;20232;-63
2022/03/14 04:17:58;;;;;;;16.08;13.82;;;7.40;36.90;;;;;;5054338;28;20688;-63
2022/03/14 04:20:26;;;;;;;21.67;14.13;;;7.40;37.00;;;;;;5054696;28;20225;-63
2022/03/14 04:22:53;;;;;;;20.52;14.80;;;7.30;37.00;;;;;;5054617;28;20816;-62
2022/03/14 04:25:20;;;;;;;18.85;14.27;;;7.30;37.00;;;;;;5054509;28;20225;-62
2022/03/14 04:27:47;;;;;;;18.67;13.75;;;7.20;37.00;;;;;;5054728;28;20217;-63
2022/03/14 04:30:16;;;;;;;22.95;15.27;;;7.20;37.00;;;;;;5046154;28;20225;-63
2022/03/14 04:32:44;;;;;;;19.95;14.10;;;7.10;37.20;;;;;;5067549;28;20304;-63
2022/03/14 04:35:11;;;;;;;18.10;14.18;;;7.00;37.30;;;;;;5054140;28;20772;-63
2022/03/14 04:37:40;;;;;;;19.55;14.52;;;7.00;37.30;;;;;;5054360;28;20532;-63
2022/03/14 04:40:09;;;;;;;20.20;13.82;;;7.00;37.40;;;;;;5053887;28;20240;-63
2022/03/14 04:42:37;;;;;;;19.42;14.25;;;7.00;37.50;;;;;;5054462;28;20296;-63
2022/03/14 04:45:05;;;;;;;26.25;14.43;;;6.90;37.50;;;;;;5053934;28;20624;-63
2022/03/14 04:47:31;;;;;;;23.17;14.00;;;6.90;37.60;;;;;;5054344;28;20279;-63
2022/03/14 04:49:58;;;;;;;18.48;15.27;;;6.90;37.60;;;;;;5053916;28;20816;-63
2022/03/14 04:52:28;;;;;;;18.33;14.30;;;6.80;37.50;;;;;;5053691;28;20380;-63
2022/03/14 04:54:56;;;;;;;19.92;15.07;;;6.90;37.80;;;;;;5053557;28;20244;-63
2022/03/14 04:57:23;;;;;;;17.25;14.13;;;6.90;37.80;;;;;;5053710;28;20237;-63
2022/03/14 04:59:49;;;;;;;19.92;14.13;;;6.90;37.80;;;;;;5053948;28;20229;-63
2022/03/14 05:02:21;;;;;;;21.75;15.85;;;6.90;37.80;;;;;;5053559;28;20247;-62
2022/03/14 05:04:47;;;;;;;17.60;15.30;;;6.90;37.80;;;;;;5053884;28;20646;-63
2022/03/14 05:07:14;;;;;;;20.88;14.60;;;6.80;37.70;;;;;;5053477;28;20230;-62
2022/03/14 05:09:41;;;;;;;21.15;13.70;;;6.80;38.00;;;;;;5053570;28;20220;-62
2022/03/14 05:12:11;;;;;;;17.55;13.70;;;6.80;37.90;;;;;;5053365;28;20683;-61
2022/03/14 05:14:39;;;;;;;20.88;15.48;;;6.80;37.90;;;;;;5053564;28;20568;-64
2022/03/14 05:17:06;;;;;;;22.38;15.77;;;6.80;38.00;;;;;;5053053;28;20687;-63
2022/03/14 05:19:33;;;;;;;22.27;14.15;;;6.80;38.00;;;;;;5053733;28;20230;-63
2022/03/14 05:22:00;;;;;;;19.85;14.13;;;6.80;38.20;;;;;;5053347;28;20240;-62
2022/03/14 05:24:27;;;;;;;19.13;13.48;;;6.80;38.30;;;;;;5053215;28;20221;-62
2022/03/14 05:26:55;;;;;;;21.33;13.80;;;6.80;38.30;;;;;;5053514;28;20236;-62
2022/03/14 05:29:23;;;;;;;22.10;14.90;;;6.90;38.40;;;;;;5052953;28;20225;-62
2022/03/14 05:31:50;;;;;;;18.90;14.25;;;6.80;38.20;;;;;;5053489;28;20573;-63
2022/03/14 05:34:17;;;;;;;20.42;15.00;;;6.80;38.30;;;;;;5052996;28;20233;-62
2022/03/14 05:36:45;;;;;;;21.20;14.63;;;6.80;38.40;;;;;;5053166;28;20543;-63
2022/03/14 05:39:12;;;;;;;22.13;16.20;;;6.70;38.20;;;;;;5052924;28;20225;-62
2022/03/14 05:41:39;;;;;;;17.67;15.00;;;6.60;38.40;;;;;;5053263;28;20236;-63
2022/03/14 05:44:06;;;;;;;22.08;15.55;;;6.60;38.60;;;;;;5052707;28;20256;-61
2022/03/14 05:46:35;;;;;;;20.95;14.52;;;6.60;38.80;;;;;;5053199;28;20221;-63
2022/03/14 05:49:02;;;;;;;19.52;14.57;;;6.60;38.80;;;;;;5052902;28;20656;-62
2022/03/14 05:51:29;;;;;;;22.65;16.60;;;6.60;39.00;;;;;;5052270;28;20224;-63
2022/03/14 05:53:56;;;;;;;18.52;14.93;;;6.60;38.90;;;;;;5053131;28;20549;-63
2022/03/14 05:56:23;;;;;;;23.63;15.98;;;6.70;39.00;;;;;;5052365;28;20230;-63
2022/03/14 05:58:50;;;;;;;21.42;15.02;;;6.60;38.80;;;;;;5052907;28;20217;-63
2022/03/14 06:01:16;;;;;;;24.00;16.30;;;6.70;38.80;;;;;;5052352;28;20229;-62
2022/03/14 06:03:45;;;;;;;26.25;16.55;;;6.60;38.60;;;;;;5052761;28;20618;-62
2022/03/14 06:06:11;;;;;;;20.77;16.42;;;6.60;38.80;;;;;;5051489;28;20217;-64
2022/03/14 06:08:38;;;;;;;17.73;14.80;;;6.60;39.40;;;;;;5052792;28;20225;-62
2022/03/14 06:11:06;;;;;;;22.00;16.38;;;6.60;38.80;;;;;;5052537;28;20229;-62
2022/03/14 06:13:33;;;;;;;25.20;15.60;;;6.60;38.90;;;;;;5052393;28;20228;-63
2022/03/14 06:16:00;;;;;;;22.83;14.95;;;6.60;38.90;;;;;;5052629;28;20233;-63
2022/03/14 06:18:29;;;;;;;21.77;14.18;;;6.60;39.00;;;;;;5051974;28;20240;-62
2022/03/14 06:20:57;;;;;;;23.65;15.43;;;6.60;39.00;;;;;;5052696;28;20312;-62
2022/03/14 06:23:24;;;;;;;20.40;14.75;;;6.60;39.10;;;;;;5052280;28;20221;-63
2022/03/14 06:25:51;;;;;;;19.00;14.55;;;6.50;39.10;;;;;;5052496;28;20225;-63
2022/03/14 06:28:18;;;;;;;22.88;17.27;;;6.40;39.10;;;;;;5052181;28;20224;-63
2022/03/14 06:30:45;;;;;;;20.02;15.18;;;6.50;39.80;;;;;;5052571;28;20294;-63
2022/03/14 06:33:13;;;;;;;24.55;16.83;;;6.50;39.40;;;;;;5051963;28;20279;-63
2022/03/14 06:35:40;;;;;;;17.40;14.65;;;6.50;39.40;;;;;;5052701;28;20228;-62
2022/03/14 06:38:11;;;;;;;25.52;17.08;;;6.50;39.40;;;;;;5052432;28;20235;-62
2022/03/14 06:40:38;;;;;;;22.38;15.60;;;6.50;39.60;;;;;;5052263;28;20744;-62
2022/03/14 06:43:07;;;;;;;26.75;17.23;;;6.50;39.50;;;;;;5052569;28;20354;-63
2022/03/14 06:45:34;;;;;;;25.83;16.63;;;6.50;39.60;;;;;;5052027;28;20310;-63
2022/03/14 06:48:02;;;;;;;24.17;15.07;;;6.50;39.70;;;;;;5052450;28;20240;-63
2022/03/14 06:50:31;;;;;;;24.30;16.25;;;6.60;39.60;;;;;;5051879;28;20224;-63
2022/03/14 06:52:58;;;;;;;26.73;16.15;;;6.60;39.40;;;;;;5052286;28;20236;-63
2022/03/14 06:55:26;;;;;;;22.52;15.77;;;6.50;39.40;;;;;;5051886;28;20676;-62
2022/03/14 06:57:54;;;;;;;21.17;15.00;;;6.60;41.00;;;;;;5052238;28;20225;-62
2022/03/14 07:00:22;;;;;;;25.83;16.02;;;6.70;39.90;;;;;;5051608;28;20222;-62
2022/03/14 07:02:49;;;;;;;20.73;15.77;;;6.70;39.20;;;;;;5052202;28;20241;-62
2022/03/14 07:05:20;;;;;;;22.25;15.77;;;6.70;39.20;;;;;;5051993;28;20235;-62
2022/03/14 07:07:47;;;;;;;23.10;15.73;;;6.80;39.20;;;;;;5052186;28;20553;-62
2022/03/14 07:10:14;;;;;;;24.90;17.15;;;6.90;39.20;;;;;;5052035;28;20237;-62
2022/03/14 07:12:46;;;;;;;26.27;15.68;;;7.00;39.00;;;;;;5051918;28;20225;-62
2022/03/14 07:15:13;;;;;;;17.23;13.40;;;7.10;39.00;;;;;;5052156;28;20735;-61
2022/03/14 07:17:41;;;;;;;20.95;15.10;;;7.10;38.60;;;;;;5053065;28;20224;-62
2022/03/14 07:20:09;;;;;;;23.77;15.95;;;7.20;38.60;;;;;;5055923;28;20290;-62
2022/03/14 07:22:54;;;;;;;20.80;15.00;;;7.30;38.50;;;;;;5055291;28;20299;-62
2022/03/14 07:25:23;;;;;;;20.70;14.45;;;7.40;38.70;;;;;;5055401;28;20240;-64
2022/03/14 07:27:52;;;;;;;21.90;15.25;;;7.30;38.60;;;;;;5055876;28;20225;-63
2022/03/14 07:30:20;;;;;;;22.00;15.43;;;7.30;38.50;;;;;;5055373;28;20233;-64
2022/03/14 07:32:47;;;;;;;22.05;14.60;;;7.40;38.60;;;;;;5055521;28;20221;-62
2022/03/14 07:35:14;;;;;;;21.85;15.60;;;7.30;38.40;;;;;;5055699;28;20224;-63
2022/03/14 07:37:41;;;;;;;16.58;14.82;;;7.40;38.60;;;;;;5055051;28;20300;-63
2022/03/14 07:40:10;;;;;;;21.02;14.50;;;7.40;38.40;;;;;;5055500;28;20687;-63
2022/03/14 07:42:41;;;;;;;20.05;13.65;;;7.40;38.40;;;;;;5055074;28;20308;-63
2022/03/14 07:45:12;;;;;;;15.68;13.05;;;7.50;38.50;;;;;;5055441;28;20260;-64
2022/03/14 07:47:40;;;;;;;24.67;16.83;;;7.60;38.60;;;;;;5055183;28;20612;-62
2022/03/14 07:50:09;;;;;;;20.05;15.35;;;7.70;39.20;;;;;;5055212;28;20297;-62
2022/03/14 07:52:37;;;;;;;20.65;15.48;;;7.90;38.60;;;;;;5054870;28;20228;-63
2022/03/14 07:55:05;;;;;;;20.58;14.80;;;8.00;38.60;;;;;;5055295;28;20701;-62
2022/03/14 07:57:32;;;;;;;19.55;13.68;;;8.10;38.50;;;;;;5054791;28;20237;-62
2022/03/14 08:00:00;;;;;;;19.00;15.25;;;8.20;38.00;;;;;;5054987;28;20225;-62
2022/03/14 08:02:28;;;;;;;19.08;12.73;;;8.30;37.70;;;;;;5054702;28;20294;-62
2022/03/14 08:04:55;;;;;;;16.95;12.50;;;8.30;37.60;;;;;;5054992;28;20295;-62
2022/03/14 08:07:22;;;;;;;18.58;14.52;;;8.40;37.60;;;;;;5054530;28;20578;-62
2022/03/14 08:09:49;;;;;;;18.00;14.13;;;8.40;37.30;;;;;;5055024;28;20236;-62
2022/03/14 08:12:16;;;;;;;20.38;14.15;;;8.40;37.20;;;;;;5054799;28;20569;-63
2022/03/14 08:14:43;;;;;;;20.33;15.63;;;8.60;37.40;;;;;;5054493;28;20228;-62
2022/03/14 08:17:10;;;;;;;19.60;14.27;;;8.60;37.00;;;;;;5054604;28;20233;-61
2022/03/14 08:19:38;;;;;;;14.93;13.43;;;8.70;36.90;;;;;;5054064;28;20233;-62
2022/03/14 08:22:05;;;;;;;17.60;13.02;;;8.70;36.90;;;;;;5054513;28;20697;-62
2022/03/14 08:24:33;;;;;;;20.08;13.85;;;8.80;36.80;;;;;;5054341;28;20576;-63
2022/03/14 08:27:01;;;;;;;23.08;13.27;;;8.90;36.80;;;;;;5054604;28;20228;-63
2022/03/14 08:29:28;;;;;;;17.70;14.73;;;8.80;36.20;;;;;;5053302;28;20573;-63
2022/03/14 08:31:55;;;;;;;21.10;12.00;;;8.90;36.40;;;;;;5054661;28;20874;-63
2022/03/14 08:34:21;;;;;;;13.93;12.07;;;9.10;36.60;;;;;;5054608;28;20221;-63
2022/03/14 08:36:50;;;;;;;18.23;13.50;;;9.10;36.20;;;;;;5054162;28;20288;-63
2022/03/14 08:39:16;;;;;;;19.88;12.18;;;9.20;35.90;;;;;;5054589;28;20256;-63
2022/03/14 08:41:43;;;;;;;15.82;11.50;;;9.30;36.00;;;;;;5053938;28;20229;-63
2022/03/14 08:44:11;;;;;;;22.05;13.45;;;9.30;35.70;;;;;;5054324;28;20705;-62
2022/03/14 08:46:38;;;;;;;16.23;12.05;;;9.40;35.70;;;;;;5053879;28;20235;-63
2022/03/14 08:49:05;;;;;;;15.63;11.05;;;9.50;35.60;;;;;;5054205;28;20290;-62
2022/03/14 08:51:34;;;;;;;19.02;12.40;;;9.60;35.70;;;;;;5053609;28;20235;-63
2022/03/14 08:54:02;;;;;;;16.65;12.73;;;9.50;35.10;;;;;;5054075;28;20287;-63
2022/03/14 08:56:29;;;;;;;14.35;11.52;;;9.60;35.40;;;;;;5053734;28;20225;-62
2022/03/14 08:58:56;;;;;;;15.93;12.57;;;9.70;35.50;;;;;;5053892;28;20682;-62
2022/03/14 09:01:23;;;;;;;15.13;12.20;;;9.70;35.30;;;;;;5053750;28;20251;-62
2022/03/14 09:03:50;;;;;;;17.38;10.98;;;9.80;35.60;;;;;;5053653;28;20220;-63
2022/03/14 09:06:18;;;;;;;14.45;12.32;;;9.90;35.70;;;;;;5053901;28;20231;-64
2022/03/14 09:08:44;;;;;;;12.88;11.35;;;10.00;34.80;;;;;;5053411;28;20229;-63
2022/03/14 09:11:13;;;;;;;13.20;11.90;;;10.10;34.60;;;;;;5053782;28;20232;-64
2022/03/14 09:13:41;;;;;;;13.00;10.82;;;10.10;34.30;;;;;;5053239;28;20233;-64
2022/03/14 09:16:08;;;;;;;16.90;11.20;;;10.20;34.20;;;;;;5053651;28;20252;-62
2022/03/14 09:18:36;;;;;;;15.27;11.00;;;10.30;34.20;;;;;;5053139;28;20252;-62
2022/03/14 09:21:03;;;;;;;13.52;11.63;;;10.30;33.70;;;;;;5053580;28;20229;-62
2022/03/14 09:23:30;;;;;;;10.60;9.60;;;10.40;33.60;;;;;;5053025;28;20272;-62
2022/03/14 09:25:57;;;;;;;12.38;10.90;;;10.40;33.70;;;;;;5053640;28;20683;-62
2022/03/14 09:28:26;;;;;;;13.02;11.27;;;10.60;33.90;;;;;;5053383;28;20244;-62
2022/03/14 09:30:53;;;;;;;13.35;11.13;;;10.70;33.70;;;;;;5053187;28;20659;-63
2022/03/14 09:33:21;;;;;;;13.38;11.55;;;10.70;33.50;;;;;;5053334;28;20225;-63
2022/03/14 09:35:48;;;;;;;15.55;11.38;;;10.80;33.50;;;;;;5052906;28;20228;-62
2022/03/14 09:38:17;;;;;;;13.57;11.02;;;10.80;33.10;;;;;;5053052;28;20232;-62
2022/03/14 09:40:45;;;;;;;12.05;10.82;;;10.80;33.20;;;;;;5052541;28;20684;-63
2022/03/14 09:43:16;;;;;;;13.27;10.55;;;10.80;33.20;;;;;;5053022;28;20236;-63
2022/03/14 09:45:47;;;;;;;15.82;10.30;;;10.80;33.20;;;;;;5052748;28;20232;-63
2022/03/14 09:48:15;;;;;;;13.50;10.75;;;10.90;33.20;;;;;;5053242;28;20228;-63
2022/03/14 09:50:44;;;;;;;13.75;11.05;;;10.90;33.20;;;;;;5052440;28;20644;-63
2022/03/14 09:53:13;;;;;;;12.48;9.63;;;11.00;33.90;;;;;;5052993;28;20564;-62
2022/03/14 09:55:44;;;;;;;13.38;11.93;;;11.00;33.20;;;;;;5052633;28;20225;-64
2022/03/14 09:58:11;;;;;;;13.77;9.95;;;11.10;33.50;;;;;;5052886;28;20225;-63
2022/03/14 10:00:39;;;;;;;11.90;10.70;;;11.10;33.50;;;;;;5052438;28;20252;-62
2022/03/14 10:03:07;;;;;;;13.15;11.05;;;11.20;33.50;;;;;;5052831;28;20672;-63
2022/03/14 10:05:34;;;;;;;13.57;11.40;;;11.30;33.40;;;;;;5052537;28;20225;-63
2022/03/14 10:08:02;;;;;;;13.40;11.80;;;11.30;33.40;;;;;;5052753;28;20225;-63
2022/03/14 10:10:29;;;;;;;14.02;10.32;;;11.30;33.50;;;;;;5052914;28;20575;-63
2022/03/14 10:12:57;;;;;;;14.20;10.25;;;11.40;33.50;;;;;;5052277;28;20231;-63
2022/03/14 10:15:25;;;;;;;15.27;11.70;;;11.30;33.50;;;;;;5052623;28;20284;-63
2022/03/14 10:17:53;;;;;;;13.38;11.90;;;11.40;33.40;;;;;;5052112;28;20237;-63
2022/03/14 10:20:22;;;;;;;14.70;11.00;;;11.50;33.50;;;;;;5052606;28;20316;-63
2022/03/14 10:22:50;;;;;;;12.00;10.40;;;11.60;33.50;;;;;;5052082;28;20693;-63
2022/03/14 10:25:18;;;;;;;12.88;10.20;;;11.70;33.60;;;;;;5052792;28;20232;-63
2022/03/14 10:27:47;;;;;;;11.48;10.15;;;11.70;33.10;;;;;;5052336;28;20282;-63
2022/03/14 10:30:28;;;;;;;12.00;10.23;;;11.80;33.10;;;;;;5052688;28;20559;-63
2022/03/14 10:33:02;;;;;;;11.65;9.93;;;11.90;33.20;;;;;;5052207;28;20221;-63
2022/03/14 10:35:36;;;;;;;11.65;9.52;;;12.00;32.90;;;;;;5052604;28;20229;-63
2022/03/14 10:38:05;;;;;;;12.07;10.82;;;12.10;33.00;;;;;;5052315;28;20664;-63
2022/03/14 10:40:33;;;;;;;10.88;9.45;;;12.20;33.10;;;;;;5052326;28;20576;-62
2022/03/14 10:43:00;;;;;;;13.77;9.95;;;12.30;33.10;;;;;;5051629;28;20224;-63
2022/03/14 10:45:30;;;;;;;10.05;9.05;;;12.30;32.60;;;;;;5052362;28;20558;-62
2022/03/14 10:47:58;;;;;;;11.82;10.57;;;12.40;32.50;;;;;;5052018;28;20247;-63
2022/03/14 10:50:30;;;;;;;10.98;9.88;;;12.40;32.10;;;;;;5052103;28;20244;-62
2022/03/14 10:53:13;;;;;;;11.75;10.60;;;12.40;32.40;;;;;;5054164;28;20231;-62
2022/03/14 10:55:43;;;;;;;11.77;10.57;;;12.50;32.40;;;;;;5055942;28;20216;-62
2022/03/14 10:58:12;;;;;;;10.45;9.48;;;12.60;32.50;;;;;;5056164;28;20221;-63
2022/03/14 11:00:55;;;;;;;11.20;10.07;;;12.60;32.40;;;;;;5055884;28;20243;-63
2022/03/14 11:03:23;;;;;;;10.88;9.88;;;12.70;32.60;;;;;;5056252;28;20260;-63
2022/03/14 11:05:51;;;;;;;11.00;9.90;;;12.70;32.60;;;;;;5056188;28;20278;-64
2022/03/14 11:08:33;;;;;;;12.30;10.32;;;12.70;32.90;;;;;;5056093;28;20702;-62
2022/03/14 11:11:02;;;;;;;10.98;9.80;;;12.80;33.10;;;;;;5056466;28;20225;-62
2022/03/14 11:13:29;;;;;;;12.38;11.07;;;12.90;33.00;;;;;;5055826;28;20256;-63
2022/03/14 11:15:57;;;;;;;14.20;11.63;;;13.00;33.20;;;;;;5056083;28;20227;-64
2022/03/14 11:18:24;;;;;;;11.40;10.27;;;13.10;33.30;;;;;;5055439;28;20229;-63
2022/03/14 11:20:53;;;;;;;11.73;10.45;;;13.10;33.40;;;;;;5055820;28;20577;-63
2022/03/14 11:23:21;;;;;;;12.07;10.95;;;13.20;32.90;;;;;;5055445;28;20249;-62
2022/03/14 11:25:50;;;;;;;11.40;10.10;;;13.30;32.70;;;;;;5055840;28;20621;-63
2022/03/14 11:28:20;;;;;;;9.98;8.98;;;13.30;32.80;;;;;;5055440;28;20221;-63
2022/03/14 11:31:00;;;;;;;11.55;10.35;;;13.40;33.00;;;;;;5055891;28;20240;-63
2022/03/14 11:33:27;;;;;;;10.15;9.15;;;13.40;32.60;;;;;;5053035;28;20229;-63
2022/03/14 11:35:54;;;;;;;14.50;11.18;;;13.40;32.60;;;;;;5044294;28;20301;-62
2022/03/14 11:38:21;;;;;;;12.02;10.20;;;13.50;32.60;;;;;;5044840;28;20663;-62
2022/03/14 11:40:51;;;;;;;12.02;10.50;;;13.50;32.60;;;;;;5054974;28;20225;-62
2022/03/14 11:43:18;;;;;;;12.32;9.75;;;13.50;32.60;;;;;;5054832;28;20224;-63
2022/03/14 11:45:47;;;;;;;11.15;10.02;;;13.60;32.80;;;;;;5055510;28;20227;-61
2022/03/14 11:48:15;;;;;;;11.45;10.23;;;13.70;32.80;;;;;;5054825;28;20717;-63
2022/03/14 11:50:46;;;;;;;12.10;10.90;;;13.80;33.10;;;;;;5048853;28;20230;-62
2022/03/14 11:53:21;;;;;;;14.38;12.90;;;13.80;32.40;;;;;;5041897;28;20648;-63
2022/03/14 11:55:57;;;;;;;10.43;9.37;;;13.80;32.60;;;;;;5053463;28;20240;-62
2022/03/14 11:58:53;;;;;;;11.68;10.60;;;13.80;31.90;;;;;;5052838;28;20507;-62
2022/03/14 12:01:24;;;;;;;10.97;10.00;;;13.90;32.40;;;;;;5051925;28;20237;-63
2022/03/14 12:03:52;;;;;;;10.25;9.35;;;14.00;32.60;;;;;;5051870;28;20479;-63
2022/03/14 12:06:40;;;;;;;10.55;9.55;;;14.20;32.70;;;;;;5052818;28;20304;-63
2022/03/14 12:09:07;;;;;;;12.05;10.05;;;14.30;32.60;;;;;;5053465;28;20598;-63
2022/03/14 12:11:40;;;;;;;10.85;9.82;;;14.40;32.40;;;;;;5049830;28;21236;-63
2022/03/14 12:14:14;;;;;;;13.93;11.60;;;14.50;33.10;;;;;;5046905;28;20274;-63
2022/03/14 12:16:44;;;;;;;15.80;13.83;;;14.60;33.30;;;;;;5042859;28;20444;-63
2022/03/14 12:19:31;;;;;;;12.60;11.13;;;14.60;32.80;;;;;;5053781;28;20501;-63
2022/03/14 12:22:00;;;;;;;10.67;9.67;;;14.70;32.80;;;;;;5034523;28;20479;-63
2022/03/14 12:24:45;;;;;;;18.65;13.68;;;14.70;32.30;;;;;;5034999;28;20460;-62
2022/03/14 12:27:19;;;;;;;14.77;12.13;;;14.70;33.20;;;;;;5034346;28;20262;-63
2022/03/14 12:29:47;;;;;;;12.50;10.40;;;14.80;33.20;;;;;;5052575;28;20467;-63
2022/03/14 12:32:25;;;;;;;12.73;10.93;;;14.80;32.60;;;;;;5054086;28;20850;-63
2022/03/14 12:35:00;;;;;;;12.13;10.10;;;14.80;32.80;;;;;;5054516;28;20981;-62
2022/03/14 12:37:37;;;;;;;11.07;9.97;;;14.80;33.10;;;;;;5053367;28;20505;-62
2022/03/14 12:40:04;;;;;;;13.20;11.57;;;14.90;33.30;;;;;;5047577;28;20464;-62
2022/03/14 12:42:40;;;;;;;11.90;10.70;;;14.90;33.40;;;;;;5037194;28;20467;-62